createdAt,value
2018-03-14T00:00:34.453Z,0.97
2018-03-14T00:03:01.927Z,1.63
2018-03-14T00:05:29.371Z,0.80
2018-03-14T00:07:56.828Z,0.77
2018-03-14T00:10:24.288Z,0.60
2018-03-14T00:12:51.750Z,0.80
2018-03-14T00:15:19.206Z,0.60
2018-03-14T00:17:46.662Z,0.83
2018-03-14T00:20:14.118Z,0.80
2018-03-14T00:22:41.581Z,0.60
2018-03-14T00:25:09.034Z,0.60
2018-03-14T00:27:36.503Z,0.70
2018-03-14T00:30:04.129Z,0.63
2018-03-14T00:32:32.411Z,0.90
2018-03-14T00:34:59.864Z,0.97
2018-03-14T00:37:27.309Z,0.70
2018-03-14T00:39:54.763Z,0.60
2018-03-14T00:42:22.212Z,0.60
2018-03-14T00:44:49.656Z,2.33
2018-03-14T00:47:17.154Z,0.60
2018-03-14T00:49:44.610Z,0.80
2018-03-14T00:52:12.048Z,0.77
2018-03-14T00:54:40.264Z,0.77
2018-03-14T00:57:07.716Z,0.90
2018-03-14T00:59:35.180Z,0.80
2018-03-14T01:02:02.649Z,0.80
2018-03-14T01:04:30.094Z,0.73
2018-03-14T01:06:57.538Z,0.80
2018-03-14T01:09:24.989Z,0.80
2018-03-14T01:11:52.441Z,0.90
2018-03-14T01:14:19.884Z,0.80
2018-03-14T01:16:47.378Z,0.80
2018-03-14T01:19:14.827Z,0.77
2018-03-14T01:21:42.271Z,0.70
2018-03-14T01:24:09.718Z,1.20
2018-03-14T01:26:37.162Z,1.10
2018-03-14T01:29:04.609Z,2.77
2018-03-14T01:31:32.071Z,0.87
2018-03-14T01:33:59.539Z,1.07
2018-03-14T01:36:27.027Z,0.93
2018-03-14T01:38:54.485Z,0.83
2018-03-14T01:41:22.534Z,1.10
2018-03-14T01:43:49.985Z,0.90
2018-03-14T01:46:17.452Z,0.80
2018-03-14T01:48:44.914Z,1.83
2018-03-14T01:51:12.374Z,0.97
2018-03-14T01:53:39.830Z,1.40
2018-03-14T01:56:07.667Z,1.40
2018-03-14T01:58:35.117Z,1.40
2018-03-14T02:01:02.565Z,1.63
2018-03-14T02:03:30.036Z,1.20
2018-03-14T02:05:57.491Z,1.50
2018-03-14T02:08:24.964Z,3.63
2018-03-14T02:10:52.418Z,1.03
2018-03-14T02:13:19.873Z,1.60
2018-03-14T02:15:47.329Z,1.30
2018-03-14T02:18:14.781Z,1.57
2018-03-14T02:20:42.223Z,1.20
2018-03-14T02:23:09.680Z,1.63
2018-03-14T02:25:37.125Z,2.83
2018-03-14T02:28:04.596Z,1.30
2018-03-14T02:30:32.055Z,1.33
2018-03-14T02:32:59.500Z,1.53
2018-03-14T02:35:26.955Z,1.10
2018-03-14T02:37:54.408Z,1.30
2018-03-14T02:40:21.857Z,1.57
2018-03-14T02:42:49.301Z,1.70
2018-03-14T02:45:17.523Z,1.63
2018-03-14T02:47:44.969Z,14.13
2018-03-14T02:50:12.423Z,1.87
2018-03-14T02:52:39.883Z,2.33
2018-03-14T02:55:07.354Z,1.80
2018-03-14T02:57:34.807Z,2.60
2018-03-14T03:00:02.256Z,1.50
2018-03-14T03:02:30.476Z,1.70
2018-03-14T03:04:58.711Z,2.00
2018-03-14T03:07:26.153Z,1.83
2018-03-14T03:09:53.614Z,1.90
2018-03-14T03:12:21.068Z,1.97
2018-03-14T03:14:48.539Z,2.07
2018-03-14T03:17:15.997Z,1.67
2018-03-14T03:19:43.444Z,2.50
2018-03-14T03:22:10.887Z,2.20
2018-03-14T03:24:38.341Z,2.10
2018-03-14T03:27:05.806Z,2.60
2018-03-14T03:29:33.261Z,2.40
2018-03-14T03:32:00.717Z,2.73
2018-03-14T03:34:28.223Z,2.70
2018-03-14T03:36:55.671Z,2.70
2018-03-14T03:39:23.135Z,3.77
2018-03-14T03:41:50.585Z,2.73
2018-03-14T03:44:18.037Z,2.50
2018-03-14T03:46:45.495Z,6.77
2018-03-14T03:49:12.946Z,2.77
2018-03-14T03:51:40.398Z,3.57
2018-03-14T03:54:08.406Z,2.43
2018-03-14T03:56:36.625Z,3.33
2018-03-14T03:59:04.086Z,3.80
2018-03-14T04:01:31.539Z,4.90
2018-03-14T04:03:58.984Z,5.47
2018-03-14T04:06:26.438Z,3.40
2018-03-14T04:08:53.896Z,5.70
2018-03-14T04:11:21.350Z,4.63
2018-03-14T04:13:48.794Z,3.93
2018-03-14T04:16:16.259Z,5.70
2018-03-14T04:18:43.697Z,4.40
2018-03-14T04:21:11.142Z,4.10
2018-03-14T04:23:39.361Z,4.20
2018-03-14T04:26:06.809Z,4.77
2018-03-14T04:28:35.014Z,7.30
2018-03-14T04:31:02.487Z,4.20
2018-03-14T04:33:29.920Z,5.50
2018-03-14T04:35:57.366Z,5.50
2018-03-14T04:38:24.822Z,4.07
2018-03-14T04:40:52.291Z,8.10
2018-03-14T04:43:19.731Z,5.37
2018-03-14T04:45:47.184Z,3.73
2018-03-14T04:48:14.635Z,5.10
2018-03-14T04:50:42.082Z,5.63
2018-03-14T04:53:09.533Z,4.30
2018-03-14T04:55:37.376Z,5.93
2018-03-14T04:58:05.603Z,4.27
2018-03-14T05:00:33.060Z,4.67
2018-03-14T05:03:00.521Z,9.80
2018-03-14T05:05:28.754Z,5.20
2018-03-14T05:07:56.970Z,6.03
2018-03-14T05:10:24.419Z,6.27
2018-03-14T05:12:51.865Z,6.30
2018-03-14T05:15:19.321Z,5.97
2018-03-14T05:17:46.785Z,6.73
2018-03-14T05:20:14.231Z,4.10
2018-03-14T05:22:41.683Z,5.33
2018-03-14T05:25:09.142Z,4.67
2018-03-14T05:27:36.671Z,7.07
2018-03-14T05:30:04.885Z,6.80
2018-03-14T05:32:32.340Z,10.90
2018-03-14T05:34:59.795Z,7.30
2018-03-14T05:37:27.260Z,6.17
2018-03-14T05:39:54.730Z,10.50
2018-03-14T05:42:22.215Z,8.57
2018-03-14T05:44:49.673Z,7.13
2018-03-14T05:47:17.135Z,5.70
2018-03-14T05:49:45.366Z,8.17
2018-03-14T05:52:12.826Z,11.30
2018-03-14T05:54:40.310Z,8.00
2018-03-14T05:57:07.744Z,9.80
2018-03-14T05:59:35.206Z,8.10
2018-03-14T06:02:02.655Z,11.27
2018-03-14T06:04:30.114Z,6.60
2018-03-14T06:06:57.566Z,9.07
2018-03-14T06:09:25.034Z,11.73
2018-03-14T06:11:53.328Z,10.00
2018-03-14T06:14:20.782Z,11.10
2018-03-14T06:16:48.239Z,8.00
2018-03-14T06:19:15.679Z,7.70
2018-03-14T06:21:43.126Z,10.07
2018-03-14T06:24:10.570Z,12.30
2018-03-14T06:26:38.043Z,14.00
2018-03-14T06:29:05.493Z,12.73
2018-03-14T06:31:32.946Z,11.30
2018-03-14T06:34:00.403Z,10.10
2018-03-14T06:36:27.854Z,13.57
2018-03-14T06:38:55.297Z,8.23
2018-03-14T06:41:22.760Z,14.60
2018-03-14T06:43:50.272Z,8.93
2018-03-14T06:46:17.729Z,12.77
2018-03-14T06:48:45.172Z,18.47
2018-03-14T06:51:12.622Z,10.20
2018-03-14T06:53:40.065Z,10.37
2018-03-14T06:56:07.510Z,7.83
2018-03-14T06:58:46.794Z,9.30
2018-03-14T07:01:26.631Z,8.47
2018-03-14T07:04:06.090Z,8.60
2018-03-14T07:06:34.314Z,11.97
2018-03-14T07:09:02.531Z,12.83
2018-03-14T07:11:30.758Z,12.53
2018-03-14T07:13:58.213Z,11.07
2018-03-14T07:16:25.694Z,11.47
2018-03-14T07:18:53.138Z,9.83
2018-03-14T07:21:20.639Z,10.10
2018-03-14T07:23:48.848Z,11.30
2018-03-14T07:26:16.310Z,10.40
2018-03-14T07:28:43.941Z,13.87
2018-03-14T07:31:11.401Z,11.17
2018-03-14T07:33:38.852Z,13.17
2018-03-14T07:36:06.358Z,8.10
2018-03-14T07:38:33.806Z,7.97
2018-03-14T07:41:01.278Z,7.87
2018-03-14T07:43:28.724Z,14.70
2018-03-14T07:45:56.184Z,8.90
2018-03-14T07:48:23.638Z,7.50
2018-03-14T07:50:51.077Z,7.43
2018-03-14T07:53:18.525Z,8.87
2018-03-14T07:55:45.972Z,11.00
2018-03-14T07:58:13.431Z,5.60
2018-03-14T08:00:40.876Z,9.73
2018-03-14T08:03:08.335Z,6.00
2018-03-14T08:05:35.789Z,11.00
2018-03-14T08:08:03.238Z,9.67
2018-03-14T08:10:31.444Z,7.53
2018-03-14T08:12:58.897Z,10.60
2018-03-14T08:15:26.351Z,8.80
2018-03-14T08:17:53.784Z,7.37
2018-03-14T08:20:21.259Z,11.40
2018-03-14T08:22:49.446Z,9.40
2018-03-14T08:25:17.510Z,13.37
2018-03-14T08:27:45.000Z,11.60
2018-03-14T08:30:12.412Z,9.20
2018-03-14T08:32:39.865Z,9.30
2018-03-14T08:35:07.311Z,12.90
2018-03-14T08:37:35.524Z,10.53
2018-03-14T08:40:02.967Z,10.20
2018-03-14T08:42:30.430Z,11.07
2018-03-14T08:44:57.879Z,21.40
2018-03-14T08:47:25.340Z,11.20
2018-03-14T08:49:52.796Z,11.97
2018-03-14T08:52:20.250Z,10.30
2018-03-14T08:54:47.707Z,15.47
2018-03-14T08:57:15.163Z,10.50
2018-03-14T08:59:42.605Z,11.67
2018-03-14T09:02:10.062Z,9.30
2018-03-14T09:04:37.520Z,11.80
2018-03-14T09:07:04.983Z,16.00
2018-03-14T09:09:32.443Z,8.97
2018-03-14T09:11:59.890Z,8.83
2018-03-14T09:14:27.351Z,14.37
2018-03-14T09:16:55.246Z,12.00
2018-03-14T09:19:22.724Z,8.17
2018-03-14T09:21:50.172Z,12.40
2018-03-14T09:24:17.640Z,8.80
2018-03-14T09:26:45.107Z,9.13
2018-03-14T09:29:12.563Z,11.97
2018-03-14T09:31:40.013Z,9.43
2018-03-14T09:34:07.475Z,10.30
2018-03-14T09:36:34.932Z,9.40
2018-03-14T09:39:02.383Z,13.37
2018-03-14T09:41:29.857Z,12.93
2018-03-14T09:43:58.079Z,9.70
2018-03-14T09:46:25.551Z,13.13
2018-03-14T09:48:53.006Z,11.57
2018-03-14T09:51:20.479Z,10.27
2018-03-14T09:53:47.941Z,9.90
2018-03-14T09:56:15.389Z,10.57
2018-03-14T09:58:42.841Z,9.47
2018-03-14T10:01:10.303Z,12.27
2018-03-14T10:03:38.536Z,9.03
2018-03-14T10:06:05.999Z,12.77
2018-03-14T10:08:33.884Z,12.73
2018-03-14T10:11:01.365Z,11.50
2018-03-14T10:13:28.825Z,9.30
2018-03-14T10:15:57.068Z,14.80
2018-03-14T10:18:25.288Z,10.07
2018-03-14T10:20:53.510Z,9.57
2018-03-14T10:23:20.976Z,9.80
2018-03-14T10:25:48.496Z,14.80
2018-03-14T10:28:15.868Z,13.10
2018-03-14T10:30:43.315Z,25.27
2018-03-14T10:33:10.779Z,9.23
2018-03-14T10:35:38.233Z,13.53
2018-03-14T10:38:05.680Z,10.10
2018-03-14T10:40:33.158Z,9.73
2018-03-14T10:43:00.621Z,10.67
2018-03-14T10:45:28.064Z,11.87
2018-03-14T10:47:55.525Z,12.50
2018-03-14T10:50:22.987Z,13.23
2018-03-14T10:52:50.438Z,12.50
2018-03-14T10:55:17.894Z,8.90
2018-03-14T10:57:45.356Z,32.10
2018-03-14T11:00:18.538Z,7.60
2018-03-14T11:02:51.603Z,10.93
2018-03-14T11:05:19.840Z,14.30
2018-03-14T11:07:48.195Z,18.50
2018-03-14T11:10:15.579Z,11.57
2018-03-14T11:12:43.095Z,13.33
2018-03-14T11:15:10.541Z,18.10
2018-03-14T11:17:38.035Z,9.93
2018-03-14T11:20:05.482Z,13.47
2018-03-14T11:22:32.944Z,8.73
2018-03-14T11:25:00.383Z,14.10
2018-03-14T11:27:27.858Z,8.80
2018-03-14T11:29:55.310Z,11.20
2018-03-14T11:32:22.770Z,12.90
2018-03-14T11:34:50.225Z,13.03
2018-03-14T11:37:17.684Z,10.90
2018-03-14T11:39:45.146Z,17.80
2018-03-14T11:42:12.609Z,10.57
2018-03-14T11:44:40.065Z,7.70
2018-03-14T11:47:07.497Z,9.67
2018-03-14T11:49:34.954Z,17.80
2018-03-14T11:52:02.388Z,7.27
2018-03-14T11:54:29.848Z,9.77
2018-03-14T11:56:57.293Z,13.10
2018-03-14T11:59:24.754Z,15.00
2018-03-14T12:01:52.208Z,9.03
2018-03-14T12:04:19.702Z,8.17
2018-03-14T12:06:47.146Z,7.03
2018-03-14T12:09:14.601Z,9.63
2018-03-14T12:11:42.066Z,9.97
2018-03-14T12:14:09.517Z,7.20
2018-03-14T12:16:36.976Z,13.57
2018-03-14T12:19:04.442Z,11.93
2018-03-14T12:21:31.881Z,7.90
2018-03-14T12:23:59.329Z,12.83
2018-03-14T12:26:26.789Z,12.37
2018-03-14T12:28:54.243Z,9.33
2018-03-14T12:31:21.689Z,8.67
2018-03-14T12:33:49.137Z,8.13
2018-03-14T12:36:16.586Z,12.83
2018-03-14T12:38:44.798Z,9.03
2018-03-14T12:41:12.238Z,9.50
2018-03-14T12:43:39.696Z,9.80
2018-03-14T12:46:07.142Z,10.03
2018-03-14T12:48:34.592Z,10.17
2018-03-14T12:51:02.812Z,9.07
2018-03-14T12:53:31.047Z,9.00
2018-03-14T12:55:59.241Z,11.83
2018-03-14T12:58:26.698Z,9.97
2018-03-14T13:00:54.152Z,7.63
2018-03-14T13:03:21.607Z,10.90
2018-03-14T13:05:49.822Z,11.57
2018-03-14T13:08:17.288Z,9.20
2018-03-14T13:10:44.738Z,8.10
2018-03-14T13:13:12.202Z,23.83
2018-03-14T13:15:39.659Z,11.80
2018-03-14T13:18:07.160Z,6.90
2018-03-14T13:20:34.561Z,7.23
2018-03-14T13:23:02.050Z,10.97
2018-03-14T13:25:30.295Z,7.70
2018-03-14T13:27:57.763Z,31.93
2018-03-14T13:30:25.200Z,11.23
2018-03-14T13:32:52.713Z,12.07
2018-03-14T13:35:20.135Z,11.33
2018-03-14T13:37:47.582Z,8.00
2018-03-14T13:40:15.030Z,14.53
2018-03-14T13:42:42.478Z,9.67
2018-03-14T13:45:09.932Z,11.47
2018-03-14T13:47:37.369Z,13.10
2018-03-14T13:50:04.823Z,6.10
2018-03-14T13:52:32.277Z,12.77
2018-03-14T13:54:59.731Z,10.47
2018-03-14T13:57:27.189Z,9.97
2018-03-14T13:59:54.651Z,12.50
2018-03-14T14:02:22.096Z,8.80
2018-03-14T14:04:49.566Z,11.43
2018-03-14T14:07:17.010Z,8.97
2018-03-14T14:09:45.606Z,11.90
2018-03-14T14:12:13.052Z,11.30
2018-03-14T14:14:40.512Z,13.50
2018-03-14T14:17:07.980Z,9.37
2018-03-14T14:19:35.429Z,10.27
2018-03-14T14:22:02.886Z,7.77
2018-03-14T14:24:30.354Z,7.70
2018-03-14T14:26:57.808Z,14.77
2018-03-14T14:29:25.305Z,8.30
2018-03-14T14:31:52.729Z,10.23
2018-03-14T14:34:20.195Z,9.60
2018-03-14T14:36:47.636Z,10.70
2018-03-14T14:39:15.093Z,7.10
2018-03-14T14:41:43.314Z,8.13
2018-03-14T14:44:11.548Z,9.40
2018-03-14T14:46:39.011Z,6.97
2018-03-14T14:49:06.464Z,7.80
2018-03-14T14:51:33.916Z,9.87
2018-03-14T14:54:01.368Z,15.90
2018-03-14T14:56:28.813Z,6.20
2018-03-14T14:58:56.245Z,9.23
2018-03-14T15:01:23.708Z,7.00
2018-03-14T15:03:51.153Z,7.83
2018-03-14T15:06:19.375Z,6.70
2018-03-14T15:08:46.827Z,9.07
2018-03-14T15:11:14.669Z,10.60
2018-03-14T15:13:42.138Z,8.63
2018-03-14T15:16:09.573Z,8.80
2018-03-14T15:18:37.047Z,13.50
2018-03-14T15:21:04.536Z,18.10
2018-03-14T15:23:31.981Z,7.30
2018-03-14T15:25:59.433Z,7.20
2018-03-14T15:28:26.893Z,8.67
2018-03-14T15:30:54.350Z,10.43
2018-03-14T15:33:21.807Z,12.90
2018-03-14T15:35:49.267Z,10.60
2018-03-14T15:38:16.714Z,7.80
2018-03-14T15:40:44.238Z,10.13
2018-03-14T15:43:11.625Z,7.57
2018-03-14T15:45:39.083Z,10.33
2018-03-14T15:48:06.538Z,12.20
2018-03-14T15:50:34.003Z,10.13
2018-03-14T15:53:01.448Z,7.77
2018-03-14T15:55:28.901Z,7.80
2018-03-14T15:57:56.355Z,11.50
2018-03-14T16:00:23.793Z,9.63
2018-03-14T16:02:51.266Z,8.23
2018-03-14T16:05:18.702Z,10.30
2018-03-14T16:07:46.145Z,12.97
2018-03-14T16:10:14.357Z,9.10
2018-03-14T16:12:42.583Z,8.57
2018-03-14T16:15:10.823Z,10.10
2018-03-14T16:17:38.277Z,9.93
2018-03-14T16:20:05.735Z,7.00
2018-03-14T16:22:33.196Z,11.53
2018-03-14T16:25:00.650Z,14.00
2018-03-14T16:27:28.109Z,24.63
2018-03-14T16:29:55.570Z,13.73
2018-03-14T16:32:23.023Z,8.07
2018-03-14T16:34:50.476Z,8.53
2018-03-14T16:37:17.932Z,13.60
2018-03-14T16:39:45.381Z,9.83
2018-03-14T16:42:12.836Z,15.73
2018-03-14T16:44:40.310Z,6.93
2018-03-14T16:47:07.741Z,6.60
2018-03-14T16:49:35.198Z,8.23
2018-03-14T16:52:02.640Z,20.10
2018-03-14T16:54:30.099Z,8.70
2018-03-14T16:56:57.548Z,21.97
2018-03-14T16:59:25.009Z,21.53
2018-03-14T17:01:52.467Z,11.83
2018-03-14T17:04:19.932Z,9.50
2018-03-14T17:06:47.384Z,14.90
2018-03-14T17:09:15.597Z,11.63
2018-03-14T17:11:43.089Z,18.43
2018-03-14T17:14:11.303Z,18.60
2018-03-14T17:16:39.210Z,12.53
2018-03-14T17:19:06.651Z,13.57
2018-03-14T17:21:34.101Z,20.87
2018-03-14T17:24:02.328Z,17.10
2018-03-14T17:26:30.627Z,14.77
2018-03-14T17:28:58.019Z,18.20
2018-03-14T17:31:25.468Z,11.73
2018-03-14T17:33:52.932Z,14.23
2018-03-14T17:36:20.401Z,16.13
2018-03-14T17:38:47.922Z,15.90
2018-03-14T17:41:15.370Z,29.23
2018-03-14T17:43:42.820Z,12.73
2018-03-14T17:46:10.274Z,11.63
2018-03-14T17:48:37.733Z,12.10
2018-03-14T17:51:05.200Z,17.77
2018-03-14T17:53:32.664Z,15.30
2018-03-14T17:56:00.113Z,22.37
2018-03-14T17:58:27.579Z,11.47
2018-03-14T18:00:55.032Z,16.13
2018-03-14T18:03:22.498Z,14.47
2018-03-14T18:05:49.957Z,15.23
2018-03-14T18:08:17.419Z,12.90
2018-03-14T18:10:44.873Z,12.00
2018-03-14T18:13:12.739Z,14.30
2018-03-14T18:15:41.713Z,26.80
2018-03-14T18:18:09.935Z,19.07
2018-03-14T18:20:38.161Z,22.87
2018-03-14T18:23:05.618Z,18.67
2018-03-14T18:25:33.072Z,20.70
2018-03-14T18:28:00.539Z,13.43
2018-03-14T18:30:27.989Z,16.60
2018-03-14T18:32:55.451Z,11.33
2018-03-14T18:35:23.001Z,16.03
2018-03-14T18:37:50.451Z,17.70
2018-03-14T18:40:17.906Z,18.93
2018-03-14T18:42:45.366Z,25.93
2018-03-14T18:45:12.835Z,20.57
2018-03-14T18:47:40.310Z,15.87
2018-03-14T18:50:07.814Z,14.97
2018-03-14T18:52:35.229Z,17.57
2018-03-14T18:55:02.681Z,16.50
2018-03-14T18:57:30.139Z,20.63
2018-03-14T18:59:57.602Z,18.03
2018-03-14T19:02:25.061Z,17.70
2018-03-14T19:04:53.280Z,14.80
2018-03-14T19:07:20.734Z,13.70
2018-03-14T19:09:48.184Z,14.43
2018-03-14T19:12:15.752Z,12.80
2018-03-14T19:14:43.196Z,15.10
2018-03-14T19:17:11.058Z,24.87
2018-03-14T19:19:38.540Z,14.80
2018-03-14T19:22:05.965Z,29.03
2018-03-14T19:24:33.426Z,15.27
2018-03-14T19:27:00.883Z,17.03
2018-03-14T19:29:28.347Z,16.43
2018-03-14T19:31:55.811Z,21.20
2018-03-14T19:34:23.269Z,22.37
2018-03-14T19:36:50.722Z,18.80
2018-03-14T19:39:18.169Z,18.77
2018-03-14T19:41:45.625Z,19.30
2018-03-14T19:44:13.129Z,20.50
2018-03-14T19:46:40.571Z,30.40
2018-03-14T19:49:08.801Z,25.30
2018-03-14T19:51:37.026Z,24.40
2018-03-14T19:54:04.501Z,32.70
2018-03-14T19:56:31.961Z,32.37
2018-03-14T19:58:59.438Z,23.90
2018-03-14T20:01:27.651Z,24.33
2018-03-14T20:03:55.137Z,23.13
2018-03-14T20:06:22.576Z,25.57
2018-03-14T20:08:50.061Z,21.47
2018-03-14T20:11:17.509Z,23.70
2018-03-14T20:13:44.984Z,23.10
2018-03-14T20:16:12.459Z,26.17
2018-03-14T20:18:40.679Z,26.90
2018-03-14T20:21:08.130Z,25.67
2018-03-14T20:23:35.577Z,29.57
2018-03-14T20:26:03.046Z,25.10
2018-03-14T20:28:30.510Z,24.07
2018-03-14T20:30:57.988Z,41.23
2018-03-14T20:33:25.418Z,24.10
2018-03-14T20:35:52.885Z,23.50
2018-03-14T20:38:20.346Z,25.50
2018-03-14T20:40:47.801Z,23.23
2018-03-14T20:43:15.258Z,28.10
2018-03-14T20:45:42.711Z,40.23
2018-03-14T20:48:10.215Z,23.20
2018-03-14T20:50:37.634Z,22.70
2018-03-14T20:53:05.100Z,21.40
2018-03-14T20:55:32.553Z,25.25
2018-03-14T20:58:00.022Z,26.65
2018-03-14T21:00:28.250Z,26.52
2018-03-14T21:02:56.503Z,22.80
2018-03-14T21:05:23.957Z,21.30
2018-03-14T21:07:51.430Z,19.12
2018-03-14T21:10:18.891Z,17.70
2018-03-14T21:12:46.357Z,19.58
2018-03-14T21:15:13.828Z,25.75
2018-03-14T21:17:41.306Z,25.65
2018-03-14T21:20:08.767Z,24.87
2018-03-14T21:22:36.235Z,25.60
2018-03-14T21:25:04.461Z,23.38
2018-03-14T21:27:31.938Z,24.92
2018-03-14T21:29:59.408Z,31.15
2018-03-14T21:32:27.660Z,19.40
2018-03-14T21:34:55.130Z,25.67
2018-03-14T21:37:22.602Z,20.65
2018-03-14T21:39:50.825Z,34.45
2018-03-14T21:42:18.447Z,55.28
2018-03-14T21:44:46.684Z,45.45
2018-03-14T21:47:14.161Z,48.95
2018-03-14T21:49:41.619Z,47.10
2018-03-14T21:52:09.086Z,37.05
2018-03-14T21:54:37.316Z,33.20
2018-03-14T21:57:17.640Z,39.95
2018-03-14T21:59:45.020Z,26.08
2018-03-14T22:02:12.492Z,28.77
2018-03-14T22:04:39.942Z,35.85
2018-03-14T22:07:07.420Z,25.12
2018-03-14T22:09:34.871Z,16.48
2018-03-14T22:12:02.446Z,21.23
2018-03-14T22:14:29.801Z,19.12
2018-03-14T22:16:57.265Z,57.55
2018-03-14T22:19:24.732Z,26.98
2018-03-14T22:21:52.963Z,20.48
2018-03-14T22:24:21.185Z,27.50
2018-03-14T22:26:49.441Z,45.70
2018-03-14T22:29:17.287Z,70.70
2018-03-14T22:31:44.759Z,28.45
2018-03-14T22:34:12.219Z,25.30
2018-03-14T22:36:39.741Z,21.30
2018-03-14T22:39:07.201Z,25.27
2018-03-14T22:41:34.891Z,20.65
2018-03-14T22:44:02.346Z,34.75
2018-03-14T22:46:29.812Z,28.00
2018-03-14T22:48:57.323Z,30.90
2018-03-14T22:51:24.766Z,28.15
2018-03-14T22:53:52.210Z,25.60
2018-03-14T22:56:20.425Z,18.35
2018-03-14T22:58:47.868Z,18.15
2018-03-14T23:01:15.335Z,20.42
2018-03-14T23:03:42.785Z,18.67
2018-03-14T23:06:10.234Z,22.55
2018-03-14T23:08:37.684Z,29.23
2018-03-14T23:11:05.143Z,22.92
2018-03-14T23:13:32.587Z,30.80
2018-03-14T23:16:00.049Z,27.80
2018-03-14T23:18:27.494Z,20.67
2018-03-14T23:20:54.945Z,23.80
2018-03-14T23:23:23.195Z,31.48
2018-03-14T23:25:50.658Z,20.45
2018-03-14T23:28:18.944Z,20.75
2018-03-14T23:30:46.790Z,24.37
2018-03-14T23:33:14.263Z,21.65
2018-03-14T23:35:42.484Z,22.50
2018-03-14T23:38:09.937Z,26.02
2018-03-14T23:40:37.392Z,25.85
2018-03-14T23:43:04.863Z,23.23
2018-03-14T23:45:32.305Z,25.55
2018-03-14T23:47:59.769Z,27.02
2018-03-14T23:50:27.229Z,21.37
2018-03-14T23:52:54.688Z,25.25
2018-03-14T23:55:22.130Z,21.80
2018-03-14T23:57:49.604Z,21.75
